Time;durP1;ratioP1;P1;durP2;ratioP2;P2;SDS_P1;SDS_P2;PMS_P1;PMS_P2;Temp;Humidity;BMP_temperature;BMP_pressure;BME280_temperature;BME280_humidity;BME280_pressure;Samples;Min_cycle;Max_cycle;Signal;HPM_P1;HPM_P2
2023/04/02 00:00:29;;;;;;;0.40;0.40;;;10.10;99.90;;;;;;4993234;28;20213;-62
2023/04/02 00:03:02;;;;;;;0.40;0.40;;;10.10;99.90;;;;;;4932980;29;20255;-63
2023/04/02 00:05:54;;;;;;;0.27;0.27;;;10.00;99.90;;;;;;4933119;29;20865;-63
2023/04/02 00:08:29;;;;;;;0.40;0.40;;;10.00;99.90;;;;;;4933252;29;20230;-64
2023/04/02 00:10:59;;;;;;;0.30;0.30;;;10.00;99.90;;;;;;4933176;29;20204;-64
2023/04/02 00:13:39;;;;;;;0.40;0.40;;;10.10;99.90;;;;;;4941162;29;20211;-63
2023/04/02 00:16:11;;;;;;;0.28;0.28;;;10.00;99.90;;;;;;4938597;29;20255;-63
2023/04/02 00:18:44;;;;;;;0.30;0.30;;;10.00;99.90;;;;;;4935958;29;20212;-63
2023/04/02 00:21:19;;;;;;;0.30;0.30;;;10.00;99.90;;;;;;4932835;29;20298;-64
2023/04/02 00:23:54;;;;;;;0.40;0.40;;;10.00;99.90;;;;;;4932837;29;20298;-65
2023/04/02 00:26:25;;;;;;;0.30;0.30;;;9.90;99.90;;;;;;4932834;29;20577;-63
2023/04/02 00:28:52;;;;;;;0.37;0.37;;;10.00;99.90;;;;;;4932748;29;20306;-63
2023/04/02 00:31:23;;;;;;;0.20;0.20;;;9.90;99.90;;;;;;4932152;29;20286;-64
2023/04/02 00:33:51;;;;;;;0.30;0.30;;;9.90;99.90;;;;;;4932855;29;20212;-64
2023/04/02 00:36:25;;;;;;;0.23;0.23;;;9.90;99.90;;;;;;4933115;29;20234;-63
2023/04/02 00:39:00;;;;;;;0.20;0.20;;;9.90;99.90;;;;;;4965729;28;20220;-64
2023/04/02 00:41:31;;;;;;;0.30;0.30;;;9.90;99.90;;;;;;4992361;28;20224;-65
2023/04/02 00:44:00;;;;;;;0.50;0.50;;;9.90;99.90;;;;;;4992723;28;20229;-65
2023/04/02 00:46:45;;;;;;;0.40;0.40;;;9.90;99.90;;;;;;4993474;28;20237;-64
2023/04/02 00:49:20;;;;;;;0.33;0.33;;;9.90;99.90;;;;;;4993979;28;20214;-65
2023/04/02 00:51:52;;;;;;;0.40;0.40;;;9.90;99.90;;;;;;4992846;28;20216;-64
2023/04/02 00:54:24;;;;;;;0.40;0.40;;;9.90;99.90;;;;;;4994385;28;20284;-63
2023/04/02 00:56:54;;;;;;;0.30;0.30;;;9.90;99.90;;;;;;4994800;28;20230;-64
2023/04/02 00:59:29;;;;;;;0.43;0.43;;;9.90;99.90;;;;;;4994917;28;20617;-63
2023/04/02 01:02:03;;;;;;;0.47;0.40;;;9.90;99.90;;;;;;4994713;28;20214;-63
2023/04/02 01:04:35;;;;;;;0.50;0.50;;;9.90;99.90;;;;;;4994119;28;20708;-64
2023/04/02 01:07:12;;;;;;;0.40;0.40;;;10.00;99.90;;;;;;4992775;28;20233;-65
2023/04/02 01:10:06;;;;;;;0.40;0.40;;;9.90;99.90;;;;;;4992733;28;20209;-63
2023/04/02 01:12:50;;;;;;;0.20;0.20;;;9.90;99.90;;;;;;4992120;28;20205;-63
2023/04/02 01:15:28;;;;;;;0.40;0.40;;;9.90;99.90;;;;;;4990886;28;20391;-63
2023/04/02 01:18:17;;;;;;;0.33;0.33;;;9.90;99.90;;;;;;4995889;28;20279;-64
2023/04/02 01:21:15;;;;;;;0.30;0.30;;;9.90;99.90;;;;;;5001359;28;20349;-63
2023/04/02 01:23:54;;;;;;;0.50;0.50;;;10.00;99.90;;;;;;4999331;28;20725;-64
2023/04/02 01:26:34;;;;;;;0.60;0.60;;;9.90;99.90;;;;;;5003217;28;20230;-64
2023/04/02 01:29:08;;;;;;;0.40;0.40;;;9.90;99.90;;;;;;4996946;28;20209;-64
2023/04/02 01:31:36;;;;;;;0.40;0.40;;;10.00;99.90;;;;;;4996232;28;20209;-64
2023/04/02 01:34:09;;;;;;;0.43;0.43;;;10.00;99.90;;;;;;4996203;28;20210;-62
2023/04/02 01:36:44;;;;;;;0.30;0.30;;;9.90;99.90;;;;;;4995989;28;20234;-62
2023/04/02 01:39:31;;;;;;;0.40;0.40;;;10.00;99.90;;;;;;4995849;28;20264;-64
2023/04/02 01:42:10;;;;;;;0.40;0.40;;;10.00;99.90;;;;;;4995890;28;20264;-62
2023/04/02 01:44:45;;;;;;;0.40;0.40;;;9.90;99.90;;;;;;4996382;28;20255;-64
2023/04/02 01:47:19;;;;;;;0.40;0.40;;;10.00;99.90;;;;;;4996866;28;20312;-63
2023/04/02 01:49:48;;;;;;;0.60;0.60;;;10.00;99.90;;;;;;4996458;28;20256;-64
2023/04/02 01:52:19;;;;;;;0.40;0.40;;;10.00;99.90;;;;;;4996745;28;20214;-64
2023/04/02 01:54:48;;;;;;;0.47;0.47;;;10.00;99.90;;;;;;4996602;28;20213;-62
2023/04/02 01:57:17;;;;;;;0.40;0.40;;;10.00;99.90;;;;;;4995875;28;20222;-63
2023/04/02 01:59:46;;;;;;;0.50;0.50;;;10.10;99.90;;;;;;4995559;28;20210;-64
2023/04/02 02:02:18;;;;;;;0.45;0.45;;;10.00;99.90;;;;;;4995674;28;20263;-62
2023/04/02 02:04:48;;;;;;;0.40;0.40;;;10.10;99.90;;;;;;4995510;28;20316;-64
2023/04/02 02:07:23;;;;;;;0.80;0.70;;;10.10;99.90;;;;;;4995519;28;20236;-63
2023/04/02 02:09:54;;;;;;;0.70;0.47;;;10.00;99.90;;;;;;4995699;28;20216;-63
2023/04/02 02:12:21;;;;;;;0.53;0.53;;;10.00;99.90;;;;;;4994992;28;20202;-63
2023/04/02 02:14:53;;;;;;;0.40;0.40;;;10.00;99.90;;;;;;4999350;28;20285;-64
2023/04/02 02:17:28;;;;;;;0.33;0.33;;;10.10;99.90;;;;;;5000106;28;20312;-63
2023/04/02 02:20:09;;;;;;;0.30;0.30;;;10.00;99.90;;;;;;4995426;28;20300;-64
2023/04/02 02:22:43;;;;;;;0.23;0.23;;;10.00;99.90;;;;;;4995255;28;20217;-64
2023/04/02 02:25:17;;;;;;;0.40;0.40;;;10.00;99.90;;;;;;4998502;28;20256;-63
2023/04/02 02:28:10;;;;;;;0.40;0.40;;;10.00;99.90;;;;;;4994967;28;20201;-64
2023/04/02 02:30:46;;;;;;;0.50;0.50;;;10.00;99.90;;;;;;4993610;28;20610;-64
2023/04/02 02:33:20;;;;;;;0.40;0.40;;;10.00;99.90;;;;;;4995154;28;20212;-64
2023/04/02 02:35:55;;;;;;;0.60;0.60;;;10.00;99.90;;;;;;4995124;28;20251;-64
2023/04/02 02:38:42;;;;;;;0.43;0.43;;;10.00;99.90;;;;;;4994815;28;20202;-64
2023/04/02 02:41:24;;;;;;;0.33;0.33;;;10.00;99.90;;;;;;4993910;28;20276;-64
2023/04/02 02:43:59;;;;;;;0.40;0.40;;;9.90;99.90;;;;;;4994738;28;20274;-63
2023/04/02 02:46:30;;;;;;;0.40;0.40;;;9.90;99.90;;;;;;4994960;28;20225;-63
2023/04/02 02:49:04;;;;;;;0.40;0.40;;;9.90;99.90;;;;;;4994735;28;20256;-63
2023/04/02 02:51:46;;;;;;;0.32;0.32;;;9.90;99.90;;;;;;4994870;28;20209;-64
2023/04/02 02:54:20;;;;;;;0.30;0.30;;;9.90;99.90;;;;;;4994935;28;20216;-63
2023/04/02 02:56:53;;;;;;;0.43;0.43;;;9.90;99.90;;;;;;4994376;28;20316;-64
2023/04/02 02:59:26;;;;;;;0.30;0.30;;;9.90;99.90;;;;;;4994253;28;20228;-63
2023/04/02 03:01:58;;;;;;;0.47;0.47;;;9.80;99.90;;;;;;4994469;28;20210;-63
2023/04/02 03:04:29;;;;;;;0.43;0.43;;;9.80;99.90;;;;;;4995558;28;20253;-64
2023/04/02 03:07:00;;;;;;;0.40;0.40;;;9.80;99.90;;;;;;4995591;28;20230;-64
2023/04/02 03:09:38;;;;;;;0.30;0.30;;;9.90;99.90;;;;;;4994670;28;20241;-64
2023/04/02 03:12:20;;;;;;;0.50;0.50;;;9.90;99.90;;;;;;4994039;28;20260;-63
2023/04/02 03:14:53;;;;;;;0.53;0.53;;;9.80;99.90;;;;;;4995244;28;20205;-64
2023/04/02 03:17:35;;;;;;;0.40;0.40;;;9.80;99.90;;;;;;4994065;28;20230;-64
2023/04/02 03:20:07;;;;;;;0.40;0.40;;;9.90;99.90;;;;;;4993745;28;20707;-64
2023/04/02 03:22:40;;;;;;;0.40;0.40;;;9.90;99.90;;;;;;4994087;28;20276;-64
2023/04/02 03:25:29;;;;;;;0.33;0.33;;;9.90;99.90;;;;;;4994256;28;20580;-64
2023/04/02 03:28:02;;;;;;;0.30;0.30;;;9.90;99.90;;;;;;4993802;28;20580;-62
2023/04/02 03:30:40;;;;;;;0.45;0.45;;;9.90;99.90;;;;;;4993540;28;20731;-64
2023/04/02 03:33:17;;;;;;;0.40;0.40;;;9.90;99.90;;;;;;4993936;28;20214;-62
2023/04/02 03:35:55;;;;;;;0.47;0.47;;;9.90;99.90;;;;;;4993925;28;20229;-61
2023/04/02 03:38:28;;;;;;;0.50;0.50;;;9.90;99.90;;;;;;4993725;28;20659;-62
2023/04/02 03:41:04;;;;;;;0.30;0.30;;;9.90;99.90;;;;;;4993472;28;20305;-62
2023/04/02 03:43:37;;;;;;;0.50;0.50;;;9.90;99.90;;;;;;4993434;28;20275;-64
2023/04/02 03:46:29;;;;;;;0.52;0.52;;;9.90;99.90;;;;;;4993490;28;20238;-63
2023/04/02 03:49:08;;;;;;;0.60;0.60;;;9.90;99.90;;;;;;4993678;28;20309;-64
2023/04/02 03:51:39;;;;;;;0.50;0.50;;;9.90;99.90;;;;;;4993252;28;20210;-63
2023/04/02 03:54:13;;;;;;;0.40;0.40;;;9.90;99.90;;;;;;4993618;28;20260;-63
2023/04/02 03:56:41;;;;;;;0.60;0.50;;;9.90;99.90;;;;;;4992977;28;20318;-63
2023/04/02 03:59:20;;;;;;;0.70;0.70;;;9.80;99.90;;;;;;4993254;28;20221;-62
2023/04/02 04:01:57;;;;;;;0.40;0.40;;;9.80;99.90;;;;;;4998369;28;20209;-63
2023/04/02 04:04:31;;;;;;;0.63;0.50;;;9.90;99.90;;;;;;4993732;28;20567;-63
2023/04/02 04:07:01;;;;;;;0.50;0.50;;;9.80;99.90;;;;;;4993564;28;20233;-62
2023/04/02 04:09:32;;;;;;;0.70;0.70;;;9.80;99.90;;;;;;4992845;28;20210;-63
2023/04/02 04:12:24;;;;;;;0.40;0.40;;;9.90;99.90;;;;;;4993220;28;20206;-64
2023/04/02 04:14:55;;;;;;;0.47;0.47;;;9.90;99.90;;;;;;4993466;28;20206;-63
2023/04/02 04:17:33;;;;;;;0.47;0.47;;;9.90;99.90;;;;;;4993050;28;20230;-63
2023/04/02 04:20:16;;;;;;;0.50;0.50;;;9.80;99.90;;;;;;5000495;28;20249;-64
2023/04/02 04:22:48;;;;;;;0.40;0.40;;;9.80;99.90;;;;;;4992837;28;20209;-64
2023/04/02 04:25:28;;;;;;;0.70;0.70;;;9.90;99.90;;;;;;4999635;28;20237;-65
2023/04/02 04:31:09;;;;;;;0.70;0.70;;;9.90;99.90;;;;;;4994766;28;20229;-64
2023/04/02 04:33:45;;;;;;;1.00;1.00;;;9.90;99.90;;;;;;4992850;28;20253;-64
2023/04/02 04:36:27;;;;;;;1.00;1.00;;;9.90;99.90;;;;;;4994278;28;20236;-63
2023/04/02 04:38:58;;;;;;;0.80;0.80;;;10.00;99.90;;;;;;5001676;28;20214;-63
2023/04/02 04:41:37;;;;;;;0.88;0.88;;;9.90;99.90;;;;;;4992335;28;20293;-64
2023/04/02 04:44:17;;;;;;;0.70;0.70;;;10.00;99.90;;;;;;4993116;28;20261;-63
2023/04/02 04:46:56;;;;;;;0.60;0.60;;;10.00;99.90;;;;;;4993686;28;20285;-65
2023/04/02 04:49:32;;;;;;;0.90;0.90;;;10.00;99.90;;;;;;4993032;28;20828;-63
2023/04/02 04:52:08;;;;;;;0.70;0.70;;;10.00;99.90;;;;;;4992190;28;20206;-64
2023/04/02 04:54:43;;;;;;;0.80;0.80;;;10.00;99.90;;;;;;4991634;28;20581;-64
2023/04/02 04:57:32;;;;;;;0.80;0.80;;;10.00;99.90;;;;;;4991871;28;20268;-64
2023/04/02 05:00:11;;;;;;;0.70;0.70;;;10.00;99.90;;;;;;4989488;28;20229;-63
2023/04/02 05:02:49;;;;;;;0.77;0.77;;;10.00;99.90;;;;;;4991526;28;20241;-62
2023/04/02 05:05:31;;;;;;;0.60;0.60;;;10.00;99.90;;;;;;4991983;28;20518;-63
2023/04/02 05:08:15;;;;;;;0.60;0.60;;;10.00;99.90;;;;;;4993095;28;20210;-63
2023/04/02 05:10:58;;;;;;;0.50;0.47;;;10.00;99.90;;;;;;4991239;28;20210;-64
2023/04/02 05:13:34;;;;;;;0.50;0.50;;;10.00;99.90;;;;;;4992463;28;20318;-62
2023/04/02 05:16:11;;;;;;;0.67;0.67;;;10.00;99.90;;;;;;4992217;28;20365;-63
2023/04/02 05:18:46;;;;;;;0.67;0.67;;;10.00;99.90;;;;;;4992291;28;20313;-62
2023/04/02 05:21:22;;;;;;;0.70;0.70;;;10.00;99.90;;;;;;4991577;28;20216;-62
2023/04/02 05:23:56;;;;;;;0.60;0.60;;;10.00;99.90;;;;;;4992067;28;20206;-63
2023/04/02 05:26:29;;;;;;;0.70;0.70;;;10.00;99.90;;;;;;4992519;28;20321;-62
2023/04/02 05:29:06;;;;;;;0.60;0.60;;;10.00;99.90;;;;;;4994520;28;20206;-64
2023/04/02 05:31:45;;;;;;;0.50;0.50;;;10.10;99.90;;;;;;4995137;28;20210;-64
2023/04/02 05:34:13;;;;;;;0.33;0.33;;;10.10;99.90;;;;;;4995109;28;20658;-64
2023/04/02 05:36:41;;;;;;;0.53;0.53;;;10.10;99.90;;;;;;4993398;28;20260;-64
2023/04/02 05:39:11;;;;;;;0.70;0.70;;;10.00;99.90;;;;;;4991822;28;20736;-62
2023/04/02 05:41:46;;;;;;;0.70;0.70;;;10.00;99.90;;;;;;4991708;28;20673;-63
2023/04/02 05:44:26;;;;;;;2.30;2.20;;;10.00;99.90;;;;;;4991728;28;20724;-63
2023/04/02 05:46:57;;;;;;;3.67;3.47;;;10.10;99.90;;;;;;4992227;28;20233;-64
2023/04/02 05:49:31;;;;;;;2.60;2.50;;;10.00;99.90;;;;;;4991644;28;20287;-64
2023/04/02 05:52:02;;;;;;;1.40;1.40;;;10.10;99.90;;;;;;4991823;28;20727;-63
2023/04/02 05:54:39;;;;;;;1.23;1.23;;;10.10;99.90;;;;;;4991347;28;20249;-64
2023/04/02 05:59:56;;;;;;;0.60;0.60;;;10.20;99.90;;;;;;4993236;28;20201;-64
2023/04/02 06:02:30;;;;;;;0.50;0.50;;;10.20;99.90;;;;;;4991052;28;20245;-62
2023/04/02 06:05:11;;;;;;;0.40;0.40;;;10.20;99.90;;;;;;4992386;28;20229;-63
2023/04/02 06:07:48;;;;;;;0.50;0.50;;;10.30;99.90;;;;;;4995794;28;20307;-62
2023/04/02 06:10:22;;;;;;;0.70;0.70;;;10.30;99.90;;;;;;4994931;28;20206;-64
2023/04/02 06:13:02;;;;;;;0.57;0.57;;;10.30;99.90;;;;;;4996148;28;20567;-64
2023/04/02 06:15:30;;;;;;;0.70;0.43;;;10.30;99.90;;;;;;4996175;28;20233;-64
2023/04/02 06:18:00;;;;;;;0.53;0.53;;;10.40;99.90;;;;;;4995725;28;20252;-64
2023/04/02 06:20:29;;;;;;;0.50;0.50;;;10.30;99.90;;;;;;4995885;28;20256;-62
2023/04/02 06:23:04;;;;;;;0.50;0.50;;;10.40;99.90;;;;;;4996911;28;20707;-63
2023/04/02 06:25:48;;;;;;;0.55;0.55;;;10.40;99.90;;;;;;4995847;28;20261;-64
2023/04/02 06:28:24;;;;;;;0.50;0.50;;;10.50;99.90;;;;;;4995337;28;20260;-64
2023/04/02 06:31:06;;;;;;;0.60;0.60;;;10.50;99.90;;;;;;4994949;28;20284;-65
2023/04/02 06:33:51;;;;;;;0.60;0.60;;;10.60;99.90;;;;;;4995302;28;20209;-64
2023/04/02 06:36:22;;;;;;;0.53;0.53;;;10.60;99.90;;;;;;4994681;28;20225;-62
2023/04/02 06:38:55;;;;;;;0.40;0.40;;;10.70;99.90;;;;;;4995058;28;20224;-63
2023/04/02 06:41:27;;;;;;;0.28;0.28;;;10.70;99.90;;;;;;4994429;28;20210;-64
2023/04/02 06:44:02;;;;;;;0.50;0.50;;;10.70;99.90;;;;;;4996085;28;20220;-64
2023/04/02 06:46:37;;;;;;;0.30;0.30;;;10.80;99.90;;;;;;5003034;28;20248;-63
2023/04/02 06:49:18;;;;;;;0.50;0.50;;;10.80;99.90;;;;;;5005765;28;20192;-64
2023/04/02 06:51:48;;;;;;;0.43;0.43;;;10.90;99.90;;;;;;5006460;28;20216;-64
2023/04/02 06:54:19;;;;;;;0.50;0.50;;;10.90;99.90;;;;;;4994282;28;20723;-64
2023/04/02 06:56:52;;;;;;;0.53;0.53;;;11.00;99.90;;;;;;4993835;28;20312;-62
2023/04/02 06:59:20;;;;;;;1.20;1.20;;;11.00;99.90;;;;;;4994040;28;20244;-63
2023/04/02 07:01:54;;;;;;;0.90;0.90;;;11.00;99.90;;;;;;4993701;28;20611;-64
2023/04/02 07:04:22;;;;;;;0.60;0.60;;;11.00;99.90;;;;;;4994250;28;20209;-64
2023/04/02 07:06:49;;;;;;;0.50;0.50;;;11.10;99.90;;;;;;4994685;28;20732;-64
2023/04/02 07:09:17;;;;;;;0.43;0.43;;;11.10;99.90;;;;;;4996255;28;20202;-62
2023/04/02 07:11:51;;;;;;;0.50;0.50;;;11.10;99.90;;;;;;4995169;28;20206;-65
2023/04/02 07:14:18;;;;;;;0.40;0.40;;;11.10;99.90;;;;;;4994866;28;20561;-64
2023/04/02 07:16:47;;;;;;;0.40;0.40;;;11.20;99.90;;;;;;4993362;28;20240;-63
2023/04/02 07:19:21;;;;;;;0.40;0.40;;;11.20;99.90;;;;;;4993552;28;20293;-63
2023/04/02 07:21:49;;;;;;;0.20;0.20;;;11.20;99.90;;;;;;4993672;28;20201;-63
2023/04/02 07:24:16;;;;;;;0.40;0.40;;;11.20;99.90;;;;;;4993919;28;20938;-64
2023/04/02 07:26:44;;;;;;;0.30;0.30;;;11.20;99.90;;;;;;4994547;28;20236;-62
2023/04/02 07:29:16;;;;;;;0.30;0.30;;;11.20;99.90;;;;;;4993526;28;20206;-63
2023/04/02 07:31:44;;;;;;;0.30;0.30;;;11.20;99.90;;;;;;4993474;28;20736;-63
2023/04/02 07:34:13;;;;;;;0.40;0.40;;;11.20;99.90;;;;;;4993663;28;20218;-63
2023/04/02 07:36:45;;;;;;;0.37;0.37;;;11.30;99.90;;;;;;4993887;28;20222;-65
2023/04/02 07:39:17;;;;;;;0.50;0.50;;;11.30;99.90;;;;;;4993774;28;20691;-66
2023/04/02 07:41:53;;;;;;;0.47;0.47;;;11.40;99.90;;;;;;4993408;28;20206;-65
2023/04/02 07:44:27;;;;;;;0.20;0.20;;;11.40;99.90;;;;;;4994191;28;20685;-63
2023/04/02 07:46:58;;;;;;;0.40;0.40;;;11.40;99.90;;;;;;4994975;28;20221;-65
2023/04/02 07:49:25;;;;;;;0.30;0.30;;;11.40;99.90;;;;;;4995132;28;20743;-64
2023/04/02 07:51:52;;;;;;;0.20;0.20;;;11.40;99.90;;;;;;4995021;28;20186;-64
2023/04/02 07:54:19;;;;;;;0.40;0.40;;;11.40;99.90;;;;;;4994002;28;20237;-65
2023/04/02 07:56:46;;;;;;;0.30;0.30;;;11.40;99.90;;;;;;4993290;28;20232;-64
2023/04/02 07:59:13;;;;;;;0.20;0.20;;;11.50;99.90;;;;;;4995475;28;20211;-64
2023/04/02 08:01:41;;;;;;;0.40;0.40;;;11.60;99.90;;;;;;5007845;28;20191;-63
2023/04/02 08:04:17;;;;;;;0.50;0.50;;;11.60;99.90;;;;;;5012806;28;20254;-63
2023/04/02 08:06:45;;;;;;;0.50;0.50;;;11.60;99.90;;;;;;5012840;28;20233;-64
2023/04/02 08:09:11;;;;;;;0.40;0.40;;;11.60;99.90;;;;;;5011519;28;20237;-63
2023/04/02 08:11:39;;;;;;;0.40;0.40;;;11.70;99.90;;;;;;5013177;28;20241;-63
2023/04/02 08:14:05;;;;;;;0.40;0.40;;;11.70;99.90;;;;;;5011697;28;20232;-63
2023/04/02 08:16:46;;;;;;;0.23;0.23;;;11.80;99.90;;;;;;4987677;28;20261;-64
2023/04/02 08:19:13;;;;;;;0.57;0.57;;;11.80;99.90;;;;;;4987701;28;20210;-63
2023/04/02 08:21:40;;;;;;;0.20;0.20;;;11.80;99.90;;;;;;4993542;28;20202;-64
2023/04/02 08:24:07;;;;;;;0.30;0.30;;;11.90;99.90;;;;;;4993018;28;20278;-63
2023/04/02 08:26:36;;;;;;;0.50;0.50;;;12.00;99.90;;;;;;4991736;28;20261;-63
2023/04/02 08:29:03;;;;;;;0.23;0.23;;;12.00;99.90;;;;;;4981784;28;20226;-63
2023/04/02 08:31:31;;;;;;;0.30;0.30;;;12.10;99.90;;;;;;4987837;28;20202;-62
2023/04/02 08:34:00;;;;;;;0.40;0.40;;;12.20;99.90;;;;;;4991426;28;20209;-63
2023/04/02 08:36:30;;;;;;;0.30;0.30;;;12.20;99.90;;;;;;4988791;28;20232;-64
2023/04/02 08:38:57;;;;;;;0.30;0.30;;;12.20;99.90;;;;;;4987924;28;20241;-63
2023/04/02 08:41:26;;;;;;;0.40;0.40;;;12.20;99.90;;;;;;4994741;28;20206;-62
2023/04/02 08:44:15;;;;;;;0.25;0.25;;;12.20;99.90;;;;;;4993678;28;20210;-65
2023/04/02 08:46:46;;;;;;;0.20;0.20;;;12.30;99.90;;;;;;4990526;28;20825;-65
2023/04/02 08:49:17;;;;;;;0.20;0.20;;;12.30;99.90;;;;;;4990061;28;20209;-64
2023/04/02 08:51:47;;;;;;;0.30;0.30;;;12.30;99.90;;;;;;4987440;28;20202;-65
2023/04/02 08:54:26;;;;;;;0.40;0.40;;;12.30;99.90;;;;;;4989674;28;20220;-65
2023/04/02 08:56:56;;;;;;;0.23;0.23;;;12.50;99.90;;;;;;4982124;28;20218;-65
2023/04/02 08:59:32;;;;;;;0.50;0.50;;;12.50;99.90;;;;;;4980694;28;20210;-65
2023/04/02 09:02:12;;;;;;;0.50;0.50;;;12.70;99.90;;;;;;4989052;28;20269;-65
2023/04/02 09:04:40;;;;;;;0.20;0.20;;;12.70;99.90;;;;;;4986100;28;20202;-64
2023/04/02 09:07:13;;;;;;;0.40;0.40;;;12.70;99.90;;;;;;4989349;28;20284;-64
2023/04/02 09:09:40;;;;;;;0.23;0.23;;;12.70;99.90;;;;;;5003424;28;20185;-63
2023/04/02 09:12:17;;;;;;;0.30;0.30;;;12.80;99.90;;;;;;4980469;28;20298;-64
2023/04/02 09:14:48;;;;;;;0.30;0.30;;;12.90;99.90;;;;;;4969566;28;20211;-64
2023/04/02 09:17:18;;;;;;;0.30;0.30;;;12.90;99.90;;;;;;4969867;28;20226;-63
2023/04/02 09:19:54;;;;;;;0.20;0.20;;;13.00;99.90;;;;;;4979550;28;20210;-64
2023/04/02 09:22:24;;;;;;;0.23;0.23;;;12.90;99.90;;;;;;4988937;28;20296;-64
2023/04/02 09:24:54;;;;;;;0.40;0.40;;;13.00;99.90;;;;;;4989447;28;20241;-65
2023/04/02 09:27:23;;;;;;;0.33;0.33;;;13.10;99.90;;;;;;4987434;28;20893;-65
2023/04/02 09:29:53;;;;;;;0.30;0.30;;;13.20;99.90;;;;;;4984772;28;20210;-64
2023/04/02 09:32:48;;;;;;;0.10;0.10;;;13.30;99.90;;;;;;4984613;28;20324;-65
2023/04/02 09:35:18;;;;;;;0.25;0.25;;;13.30;99.90;;;;;;4974886;28;20320;-64
2023/04/02 09:37:46;;;;;;;0.20;0.20;;;13.50;99.90;;;;;;4988726;28;20220;-65
2023/04/02 09:40:25;;;;;;;0.10;0.10;;;13.50;99.90;;;;;;4986820;28;20210;-64
2023/04/02 09:43:03;;;;;;;0.10;0.10;;;13.70;99.90;;;;;;4992394;28;20303;-64
2023/04/02 09:45:30;;;;;;;0.20;0.20;;;13.80;99.90;;;;;;4992812;28;20234;-64
2023/04/02 09:47:57;;;;;;;0.20;0.20;;;13.80;99.90;;;;;;4992096;28;20320;-65
2023/04/02 09:50:29;;;;;;;0.20;0.20;;;13.90;99.90;;;;;;4991428;28;20759;-64
2023/04/02 09:52:56;;;;;;;0.20;0.20;;;14.00;99.90;;;;;;4989720;28;20210;-64
2023/04/02 09:55:27;;;;;;;0.10;0.10;;;14.00;99.90;;;;;;4991942;28;20232;-63
2023/04/02 09:58:11;;;;;;;0.30;0.30;;;13.90;99.90;;;;;;4991830;28;20205;-63
2023/04/02 10:00:38;;;;;;;0.10;0.10;;;13.80;99.90;;;;;;4992837;28;20206;-65
2023/04/02 10:03:07;;;;;;;0.30;0.30;;;13.80;99.90;;;;;;5000277;28;20226;-64
2023/04/02 10:05:35;;;;;;;0.10;0.10;;;13.70;99.90;;;;;;4994448;28;20230;-65
2023/04/02 10:08:17;;;;;;;0.30;0.30;;;13.70;99.90;;;;;;4994226;28;20579;-64
2023/04/02 10:10:48;;;;;;;0.30;0.30;;;13.80;99.90;;;;;;4993456;28;20210;-65
2023/04/02 10:13:22;;;;;;;0.30;0.30;;;14.00;99.90;;;;;;4994471;28;20210;-63
2023/04/02 10:15:54;;;;;;;0.13;0.13;;;14.00;99.90;;;;;;4994531;28;20221;-64
2023/04/02 10:18:30;;;;;;;0.30;0.30;;;14.10;99.90;;;;;;4994135;28;20205;-63
2023/04/02 10:21:01;;;;;;;0.20;0.20;;;14.20;99.90;;;;;;4974629;28;20211;-63
2023/04/02 10:23:30;;;;;;;0.30;0.30;;;14.10;99.90;;;;;;4975763;28;20218;-64
2023/04/02 10:26:07;;;;;;;0.10;0.10;;;14.00;99.90;;;;;;4975605;28;20271;-63
2023/04/02 10:28:46;;;;;;;0.40;0.40;;;13.90;99.90;;;;;;4975778;28;20202;-65
2023/04/02 10:31:19;;;;;;;0.17;0.17;;;13.80;99.90;;;;;;4975365;28;20212;-63
2023/04/02 10:33:51;;;;;;;0.30;0.30;;;13.70;99.90;;;;;;4974608;28;20211;-65
2023/04/02 10:36:34;;;;;;;0.27;0.27;;;13.70;99.90;;;;;;4974866;28;20230;-63
2023/04/02 10:39:07;;;;;;;0.15;0.15;;;13.80;99.90;;;;;;4974526;28;20210;-64
2023/04/02 10:41:42;;;;;;;0.23;0.23;;;13.90;99.90;;;;;;4975047;28;20191;-63
2023/04/02 10:44:35;;;;;;;0.20;0.20;;;13.80;99.90;;;;;;4974891;28;20306;-64
2023/04/02 10:47:12;;;;;;;0.30;0.30;;;13.80;99.90;;;;;;4974762;28;20262;-65
2023/04/02 10:49:47;;;;;;;0.23;0.23;;;14.00;99.90;;;;;;4974184;28;20201;-63
2023/04/02 10:52:21;;;;;;;0.20;0.20;;;14.00;99.90;;;;;;4974007;28;20206;-64
2023/04/02 10:54:50;;;;;;;0.20;0.20;;;13.70;99.90;;;;;;4975095;28;20211;-62
2023/04/02 10:57:29;;;;;;;0.30;0.30;;;13.80;99.90;;;;;;4986767;28;20226;-64
2023/04/02 11:00:04;;;;;;;0.40;0.40;;;13.90;99.90;;;;;;4993131;28;20214;-63
2023/04/02 11:02:41;;;;;;;0.17;0.17;;;14.00;99.90;;;;;;4991367;28;20212;-65
2023/04/02 11:05:17;;;;;;;0.27;0.27;;;13.60;99.90;;;;;;4994617;28;20201;-65
2023/04/02 11:07:54;;;;;;;0.57;0.57;;;13.70;99.90;;;;;;4995415;28;20229;-64
2023/04/02 11:10:22;;;;;;;0.30;0.30;;;13.70;99.90;;;;;;4992837;28;20213;-63
2023/04/02 11:12:55;;;;;;;0.20;0.20;;;13.60;99.90;;;;;;4993079;28;20673;-64
2023/04/02 11:15:23;;;;;;;0.67;0.60;;;13.60;99.90;;;;;;4992783;28;20210;-65
2023/04/02 11:17:50;;;;;;;0.33;0.33;;;13.70;99.90;;;;;;4992759;28;20202;-65
2023/04/02 11:21:03;;;;;;;0.20;0.20;;;13.70;99.90;;;;;;4992617;28;20206;-64
2023/04/02 11:23:33;;;;;;;0.27;0.27;;;13.90;99.90;;;;;;4993055;28;20209;-65
2023/04/02 11:26:36;;;;;;;0.30;0.30;;;14.00;99.90;;;;;;4992989;28;20311;-65
2023/04/02 11:29:12;;;;;;;0.20;0.20;;;14.10;99.90;;;;;;4995120;28;20205;-65
2023/04/02 11:31:39;;;;;;;0.40;0.40;;;14.10;99.90;;;;;;4992622;28;20210;-65
2023/04/02 11:34:11;;;;;;;0.50;0.50;;;14.30;99.90;;;;;;4992439;28;20789;-65
2023/04/02 11:37:00;;;;;;;0.30;0.30;;;14.40;99.90;;;;;;4993250;28;20226;-65
2023/04/02 11:39:54;;;;;;;0.37;0.37;;;14.40;99.90;;;;;;4994132;28;20238;-67
2023/04/02 11:42:31;;;;;;;0.50;0.50;;;14.50;99.90;;;;;;4993451;28;20209;-66
2023/04/02 11:45:17;;;;;;;0.27;0.27;;;14.50;99.90;;;;;;4993545;28;20301;-66
2023/04/02 11:48:23;;;;;;;0.25;0.25;;;14.70;99.90;;;;;;4995031;28;20292;-66
2023/04/02 11:50:50;;;;;;;0.40;0.40;;;14.60;99.90;;;;;;4993456;28;20260;-65
2023/04/02 11:53:22;;;;;;;0.30;0.30;;;14.70;99.90;;;;;;4994947;28;20264;-66
2023/04/02 11:56:19;;;;;;;0.43;0.43;;;14.70;99.90;;;;;;4994992;28;20225;-66
2023/04/02 11:59:00;;;;;;;0.30;0.30;;;14.80;99.90;;;;;;4994804;28;20626;-64
2023/04/02 12:01:47;;;;;;;0.30;0.30;;;14.80;99.90;;;;;;4995421;28;20265;-63
2023/04/02 12:04:47;;;;;;;0.40;0.40;;;14.80;99.90;;;;;;4991214;28;20214;-66
2023/04/02 12:07:34;;;;;;;0.20;0.20;;;14.80;99.90;;;;;;4993371;28;20317;-65
2023/04/02 12:10:04;;;;;;;0.30;0.30;;;14.80;99.90;;;;;;4992199;28;20641;-66
2023/04/02 12:12:36;;;;;;;0.50;0.50;;;14.80;99.90;;;;;;4994837;28;20210;-66
2023/04/02 12:15:07;;;;;;;0.30;0.30;;;14.80;99.90;;;;;;5003033;28;20210;-65
2023/04/02 12:17:35;;;;;;;0.30;0.30;;;14.80;99.90;;;;;;5001257;28;20206;-64
2023/04/02 12:20:19;;;;;;;0.30;0.30;;;14.40;99.90;;;;;;5003106;28;20864;-65
2023/04/02 12:22:49;;;;;;;0.30;0.30;;;14.50;99.90;;;;;;4997515;28;20217;-64
2023/04/02 12:25:28;;;;;;;0.30;0.30;;;14.50;99.90;;;;;;4996438;28;20272;-66
2023/04/02 12:28:06;;;;;;;0.13;0.13;;;14.50;99.90;;;;;;4993041;28;20723;-65
2023/04/02 12:30:33;;;;;;;0.35;0.35;;;14.40;99.90;;;;;;4993065;28;20209;-67
2023/04/02 12:33:15;;;;;;;0.20;0.20;;;14.40;99.90;;;;;;4991086;28;20216;-64
2023/04/02 12:35:43;;;;;;;0.20;0.20;;;14.50;99.90;;;;;;4992373;28;20245;-64
2023/04/02 12:38:20;;;;;;;0.20;0.20;;;14.50;99.90;;;;;;4991568;28;20751;-65
2023/04/02 12:40:52;;;;;;;0.20;0.20;;;14.40;99.90;;;;;;4992068;28;20657;-64
2023/04/02 12:43:27;;;;;;;0.10;0.10;;;14.50;99.90;;;;;;4999932;28;20210;-64
2023/04/02 12:45:55;;;;;;;0.30;0.30;;;14.50;99.90;;;;;;4991873;28;20229;-65
2023/04/02 12:48:23;;;;;;;0.23;0.23;;;14.50;99.90;;;;;;4992464;28;20206;-64
2023/04/02 12:50:51;;;;;;;0.20;0.20;;;14.50;99.90;;;;;;4991928;28;20201;-64
2023/04/02 12:53:23;;;;;;;0.13;0.13;;;14.50;99.90;;;;;;4991801;28;20206;-66
2023/04/02 12:55:52;;;;;;;0.23;0.23;;;14.40;99.90;;;;;;4992204;28;20233;-64
2023/04/02 12:58:28;;;;;;;0.27;0.27;;;14.40;99.90;;;;;;4992527;28;20205;-65
2023/04/02 13:01:10;;;;;;;0.10;0.10;;;14.40;99.90;;;;;;4991838;28;20581;-64
2023/04/02 13:03:37;;;;;;;0.15;0.15;;;14.60;99.90;;;;;;4991727;28;20831;-64
2023/04/02 13:06:16;;;;;;;0.10;0.10;;;14.60;99.90;;;;;;4991671;28;20724;-65
2023/04/02 13:08:43;;;;;;;0.20;0.20;;;14.60;99.90;;;;;;4992568;28;20216;-66
2023/04/02 13:11:10;;;;;;;0.10;0.10;;;14.70;99.90;;;;;;4991630;28;20213;-65
2023/04/02 13:13:40;;;;;;;0.10;0.10;;;14.80;99.90;;;;;;4992296;28;20299;-65
2023/04/02 13:16:24;;;;;;;0.20;0.20;;;14.60;99.90;;;;;;4992860;28;20225;-65
2023/04/02 13:18:51;;;;;;;0.17;0.17;;;14.70;99.90;;;;;;4993678;28;20209;-65
2023/04/02 13:21:27;;;;;;;0.20;0.20;;;14.80;99.90;;;;;;4993626;28;20220;-64
2023/04/02 13:23:54;;;;;;;0.20;0.20;;;15.20;99.90;;;;;;4993992;28;20688;-65
2023/04/02 13:26:23;;;;;;;0.10;0.10;;;15.20;99.90;;;;;;4992453;28;20261;-66
2023/04/02 13:29:03;;;;;;;0.20;0.20;;;15.20;99.90;;;;;;4991985;28;20248;-66
2023/04/02 13:31:30;;;;;;;0.30;0.30;;;15.10;99.90;;;;;;4995621;28;20205;-64